Time;durP1;ratioP1;P1;durP2;ratioP2;P2;SDS_P1;SDS_P2;PMS_P1;PMS_P2;Temp;Humidity;BMP_temperature;BMP_pressure;BME280_temperature;BME280_humidity;BME280_pressure;Samples;Min_cycle;Max_cycle;Signal;HPM_P1;HPM_P2
2022/07/24 00:01:22;;;;;;;;;;;;;;;16.33;40.09;95997.78;5007934;28;20033;-69
2022/07/24 00:03:47;;;;;;;;;;;;;;;16.19;39.89;95990.75;5008742;28;19973;-69
2022/07/24 00:06:12;;;;;;;;;;;;;;;16.18;40.73;95989.09;5008509;28;20521;-69
2022/07/24 00:08:38;;;;;;;;;;;;;;;16.19;40.50;95990.75;5007632;28;20020;-69
2022/07/24 00:11:03;;;;;;;;;;;;;;;16.16;40.42;95991.97;5008341;28;19973;-69
2022/07/24 00:13:28;;;;;;;;;;;;;;;16.18;40.45;95992.59;5017823;28;20009;-69
2022/07/24 00:15:54;;;;;;;;;;;;;;;16.26;40.46;95992.38;5007617;28;19972;-69
2022/07/24 00:18:19;;;;;;;;;;;;;;;16.32;40.25;95995.31;5019528;28;20314;-69
2022/07/24 00:20:45;;;;;;;;;;;;;;;16.32;40.27;95990.75;5015569;28;19991;-70
2022/07/24 00:23:11;;;;;;;;;;;;;;;16.21;39.94;95985.97;5011486;28;19977;-69
2022/07/24 00:25:36;;;;;;;;;;;;;;;16.26;40.09;95988.88;5007815;28;19988;-70
2022/07/24 00:28:01;;;;;;;;;;;;;;;16.34;39.58;95993.22;5010638;28;20008;-70
2022/07/24 00:30:26;;;;;;;;;;;;;;;16.34;39.86;95991.38;5014330;28;19980;-70
2022/07/24 00:32:52;;;;;;;;;;;;;;;16.34;39.94;95987.84;5007838;28;19993;-70
2022/07/24 00:35:17;;;;;;;;;;;;;;;16.28;39.85;95989.50;5017346;28;19974;-70
2022/07/24 00:37:43;;;;;;;;;;;;;;;16.26;39.88;95987.00;5007812;28;20044;-70
2022/07/24 00:40:08;;;;;;;;;;;;;;;16.28;39.93;95986.81;5009067;28;20380;-69
2022/07/24 00:42:33;;;;;;;;;;;;;;;16.28;40.16;95986.00;5008738;28;20454;-69
2022/07/24 00:44:59;;;;;;;;;;;;;;;16.27;39.92;95977.09;5009546;28;20039;-69
2022/07/24 00:47:24;;;;;;;;;;;;;;;16.26;40.01;95983.53;5008509;28;20457;-70
2022/07/24 00:49:49;;;;;;;;;;;;;;;16.09;40.33;95983.09;5007258;28;20059;-69
2022/07/24 00:52:15;;;;;;;;;;;;;;;16.09;40.50;95988.47;5009203;28;20001;-69
2022/07/24 00:54:40;;;;;;;;;;;;;;;15.98;40.61;95992.56;5008988;28;19978;-69
2022/07/24 00:57:05;;;;;;;;;;;;;;;16.10;40.14;95993.63;5010622;28;20425;-69
2022/07/24 00:59:30;;;;;;;;;;;;;;;16.15;40.28;95993.03;5013535;28;20540;-69
2022/07/24 01:01:56;;;;;;;;;;;;;;;16.10;40.12;95990.09;5008769;28;19988;-69
2022/07/24 01:04:21;;;;;;;;;;;;;;;16.05;40.56;95981.84;5006969;28;20573;-69
2022/07/24 01:06:46;;;;;;;;;;;;;;;16.02;40.41;95985.75;4991608;28;20354;-69
2022/07/24 01:09:11;;;;;;;;;;;;;;;15.95;40.64;95979.56;5016019;28;20361;-70
2022/07/24 01:11:40;;;;;;;;;;;;;;;15.93;40.47;95982.44;5009873;28;20009;-69
2022/07/24 01:14:06;;;;;;;;;;;;;;;16.02;40.42;95984.94;5007725;28;19998;-70
2022/07/24 01:16:32;;;;;;;;;;;;;;;16.07;40.27;95975.22;5010071;28;20032;-70
2022/07/24 01:18:57;;;;;;;;;;;;;;;16.12;40.31;95980.00;5016824;28;19972;-70
2022/07/24 01:21:22;;;;;;;;;;;;;;;16.00;40.31;95969.84;5006680;28;19996;-69
2022/07/24 01:23:47;;;;;;;;;;;;;;;15.95;40.45;95969.63;5007426;28;20025;-70
2022/07/24 01:26:13;;;;;;;;;;;;;;;16.02;40.40;95966.13;5015592;28;20041;-70
2022/07/24 01:28:38;;;;;;;;;;;;;;;16.04;40.28;95961.41;5006898;28;20083;-70
2022/07/24 01:31:03;;;;;;;;;;;;;;;16.05;40.07;95971.09;5014195;28;20021;-70
2022/07/24 01:33:28;;;;;;;;;;;;;;;16.08;40.11;95966.13;5011558;28;20372;-70
2022/07/24 01:35:54;;;;;;;;;;;;;;;16.09;40.04;95966.97;5009382;28;19980;-70
2022/07/24 01:38:19;;;;;;;;;;;;;;;16.05;40.12;95965.72;5017114;28;20314;-69
2022/07/24 01:40:44;;;;;;;;;;;;;;;16.00;40.42;95952.91;5007180;28;20090;-69
2022/07/24 01:43:10;;;;;;;;;;;;;;;16.04;40.16;95964.09;5007833;28;19970;-70
2022/07/24 01:45:35;;;;;;;;;;;;;;;16.06;39.96;95957.47;5008687;28;20444;-70
2022/07/24 01:48:00;;;;;;;;;;;;;;;16.02;40.02;95958.06;5007231;28;20396;-70
2022/07/24 01:50:25;;;;;;;;;;;;;;;15.98;40.14;95965.72;5011274;28;20016;-69
2022/07/24 01:52:52;;;;;;;;;;;;;;;15.96;39.97;95965.94;5014435;28;19998;-69
2022/07/24 01:55:18;;;;;;;;;;;;;;;15.93;39.93;95962.81;5006230;28;20445;-69
2022/07/24 01:57:43;;;;;;;;;;;;;;;15.93;39.89;95955.59;5005463;28;20233;-70
2022/07/24 02:00:12;;;;;;;;;;;;;;;15.94;39.81;95965.28;5008222;28;20024;-70
2022/07/24 02:02:37;;;;;;;;;;;;;;;15.88;40.12;95958.06;5013865;28;20262;-70
2022/07/24 02:05:03;;;;;;;;;;;;;;;15.86;39.97;95960.13;5008224;28;19993;-69
2022/07/24 02:07:28;;;;;;;;;;;;;;;15.86;40.24;95965.47;5011136;28;20754;-69
2022/07/24 02:09:53;;;;;;;;;;;;;;;15.84;40.41;95965.69;5007411;28;19996;-69
2022/07/24 02:12:18;;;;;;;;;;;;;;;15.78;40.39;95958.47;5007534;28;20009;-69
2022/07/24 02:14:44;;;;;;;;;;;;;;;15.75;40.25;95962.34;5007992;28;20010;-70
2022/07/24 02:17:09;;;;;;;;;;;;;;;15.66;40.50;95960.91;5006703;28;20218;-70
2022/07/24 02:19:34;;;;;;;;;;;;;;;15.60;40.48;95967.06;5016165;28;19974;-70
2022/07/24 02:21:59;;;;;;;;;;;;;;;15.56;40.55;95965.81;5011095;28;20029;-69
2022/07/24 02:24:25;;;;;;;;;;;;;;;15.54;40.60;95968.66;5009773;28;19986;-69
2022/07/24 02:26:50;;;;;;;;;;;;;;;15.48;40.84;95970.31;5007391;28;19977;-69
2022/07/24 02:29:16;;;;;;;;;;;;;;;15.45;40.85;95967.19;5011097;28;20360;-70
2022/07/24 02:31:41;;;;;;;;;;;;;;;15.41;40.73;95968.63;5007204;28;20423;-70
2022/07/24 02:34:06;;;;;;;;;;;;;;;15.38;40.67;95969.84;5007911;28;20469;-69
2022/07/24 02:36:31;;;;;;;;;;;;;;;15.28;40.98;95964.03;5006983;28;20369;-69
2022/07/24 02:38:57;;;;;;;;;;;;;;;15.27;41.00;95967.75;5009450;28;20032;-69
2022/07/24 02:41:22;;;;;;;;;;;;;;;15.22;41.00;95962.97;5007512;28;20050;-70
2022/07/24 02:43:47;;;;;;;;;;;;;;;15.16;41.30;95961.91;5007055;28;20027;-70
2022/07/24 02:46:12;;;;;;;;;;;;;;;15.16;41.30;95966.47;5005130;28;20001;-70
2022/07/24 02:48:38;;;;;;;;;;;;;;;15.16;41.01;95967.28;5004736;28;20068;-70
2022/07/24 02:51:03;;;;;;;;;;;;;;;15.13;41.23;95973.03;5006889;28;19995;-69
2022/07/24 02:53:28;;;;;;;;;;;;;;;15.13;41.26;95967.66;5005891;28;20089;-69
2022/07/24 02:55:53;;;;;;;;;;;;;;;15.07;41.22;95966.63;5007148;28;20295;-70
2022/07/24 02:58:19;;;;;;;;;;;;;;;15.06;41.46;95964.97;5009625;28;20282;-70
2022/07/24 03:00:44;;;;;;;;;;;;;;;15.05;41.36;95963.31;5011047;28;19989;-70
2022/07/24 03:03:09;;;;;;;;;;;;;;;15.00;41.89;95972.97;5010906;28;20243;-70
2022/07/24 03:05:34;;;;;;;;;;;;;;;14.92;41.90;95977.47;5015495;28;19993;-70
2022/07/24 03:08:00;;;;;;;;;;;;;;;14.94;41.66;95977.25;5014608;28;19974;-70
2022/07/24 03:10:25;;;;;;;;;;;;;;;14.94;41.94;95970.06;5007681;28;19961;-70
2022/07/24 03:12:50;;;;;;;;;;;;;;;14.84;42.21;95964.22;4991547;28;20397;-70
2022/07/24 03:15:15;;;;;;;;;;;;;;;14.81;41.46;95973.47;5009695;28;19966;-70
2022/07/24 03:17:48;;;;;;;;;;;;;;;14.74;41.95;95971.78;4996002;28;20314;-69
2022/07/24 03:20:13;;;;;;;;;;;;;;;14.75;41.58;95965.41;5007813;28;20100;-70
2022/07/24 03:22:38;;;;;;;;;;;;;;;14.67;41.56;95966.34;5012666;28;20652;-70
2022/07/24 03:25:04;;;;;;;;;;;;;;;14.63;42.09;95963.25;5008700;28;19985;-69
2022/07/24 03:27:29;;;;;;;;;;;;;;;14.65;42.21;95965.72;5006588;28;20418;-69
2022/07/24 03:29:54;;;;;;;;;;;;;;;14.67;42.12;95969.84;5010895;28;20484;-69
2022/07/24 03:32:19;;;;;;;;;;;;;;;14.67;42.15;95974.38;5019937;28;20713;-69
2022/07/24 03:34:45;;;;;;;;;;;;;;;14.63;42.32;95970.44;5009886;28;19973;-69
2022/07/24 03:37:10;;;;;;;;;;;;;;;14.67;42.14;95963.66;5004996;28;20024;-69
2022/07/24 03:39:36;;;;;;;;;;;;;;;14.70;42.48;95971.31;5006318;28;19978;-69
2022/07/24 03:42:01;;;;;;;;;;;;;;;14.78;41.81;95973.88;5004451;28;20009;-69
2022/07/24 03:44:26;;;;;;;;;;;;;;;14.74;42.17;95969.94;5004616;28;19993;-69
2022/07/24 03:46:51;;;;;;;;;;;;;;;14.76;42.09;95967.91;5015081;28;20465;-69
2022/07/24 03:49:17;;;;;;;;;;;;;;;14.75;42.10;95966.22;5006733;28;20003;-68
2022/07/24 03:51:42;;;;;;;;;;;;;;;14.72;42.03;95967.41;5016352;28;19996;-63
2022/07/24 03:54:07;;;;;;;;;;;;;;;14.70;42.41;95972.16;5007538;28;19994;-67
2022/07/24 03:56:33;;;;;;;;;;;;;;;14.72;42.37;95964.72;5004479;28;19990;-67
2022/07/24 03:58:58;;;;;;;;;;;;;;;14.77;42.20;95971.38;5011333;28;19981;-68
2022/07/24 04:01:23;;;;;;;;;;;;;;;14.76;42.34;95972.41;5011721;28;20289;-68
2022/07/24 04:03:49;;;;;;;;;;;;;;;14.80;42.45;95969.16;5009306;28;20016;-68
2022/07/24 04:06:14;;;;;;;;;;;;;;;14.83;42.07;95967.94;5011613;28;19969;-68
2022/07/24 04:08:39;;;;;;;;;;;;;;;14.87;41.92;95969.19;4996737;28;19993;-68
2022/07/24 04:11:05;;;;;;;;;;;;;;;14.93;41.82;95968.38;5011996;28;19976;-68
2022/07/24 04:13:30;;;;;;;;;;;;;;;14.97;42.07;95969.69;5008778;28;20045;-68
2022/07/24 04:15:55;;;;;;;;;;;;;;;15.06;41.66;95967.63;4992299;28;19981;-68
2022/07/24 04:18:21;;;;;;;;;;;;;;;15.13;41.56;95964.97;5010098;28;20413;-68
2022/07/24 04:20:46;;;;;;;;;;;;;;;15.15;42.00;95970.16;4993890;28;19997;-68
2022/07/24 04:23:11;;;;;;;;;;;;;;;15.20;41.84;95971.22;5015040;28;19974;-68
2022/07/24 04:25:36;;;;;;;;;;;;;;;15.29;41.96;95979.09;5011252;28;20144;-68
2022/07/24 04:28:02;;;;;;;;;;;;;;;15.41;41.84;95974.00;5007848;28;20068;-68
2022/07/24 04:30:27;;;;;;;;;;;;;;;15.51;41.67;95973.63;5009734;28;19970;-68
2022/07/24 04:32:52;;;;;;;;;;;;;;;15.56;41.57;95965.81;5006958;28;20470;-69
2022/07/24 04:35:17;;;;;;;;;;;;;;;15.64;41.65;95962.97;5016773;28;19974;-69
2022/07/24 04:37:43;;;;;;;;;;;;;;;15.70;41.55;95964.00;5009550;28;20002;-69
2022/07/24 04:40:08;;;;;;;;;;;;;;;15.75;41.30;95967.72;5014250;28;20004;-70
2022/07/24 04:42:33;;;;;;;;;;;;;;;15.83;41.54;95968.56;5023203;28;20056;-69
2022/07/24 04:44:59;;;;;;;;;;;;;;;15.88;41.60;95963.44;5016049;28;19997;-70
2022/07/24 04:47:24;;;;;;;;;;;;;;;15.96;41.54;95955.19;5008302;28;19973;-70
2022/07/24 04:49:49;;;;;;;;;;;;;;;16.05;41.32;95966.53;5008188;28;19994;-70
2022/07/24 04:52:14;;;;;;;;;;;;;;;16.15;41.45;95968.84;5009759;28;20032;-70
2022/07/24 04:54:40;;;;;;;;;;;;;;;16.30;41.09;95970.50;5009840;28;19978;-70
2022/07/24 04:57:05;;;;;;;;;;;;;;;16.39;40.96;95974.69;5005760;28;20020;-70
2022/07/24 04:59:30;;;;;;;;;;;;;;;16.41;40.72;95972.59;5016762;28;19973;-70
2022/07/24 05:01:55;;;;;;;;;;;;;;;16.54;40.93;95970.94;5014177;28;20110;-70
2022/07/24 05:04:21;;;;;;;;;;;;;;;16.69;40.84;95978.78;5007130;28;20393;-70
2022/07/24 05:06:46;;;;;;;;;;;;;;;16.80;40.95;95974.63;5010345;28;20076;-70
2022/07/24 05:09:11;;;;;;;;;;;;;;;16.93;41.13;95974.59;5006528;28;20285;-70
2022/07/24 05:11:36;;;;;;;;;;;;;;;17.02;41.04;95977.91;5010563;28;20470;-70
2022/07/24 05:14:02;;;;;;;;;;;;;;;17.11;40.61;95981.19;5013877;28;20492;-70
2022/07/24 05:16:27;;;;;;;;;;;;;;;17.20;41.02;95985.31;5009286;28;19999;-70
2022/07/24 05:18:52;;;;;;;;;;;;;;;17.27;40.67;95983.44;5008122;28;19978;-70
2022/07/24 05:21:17;;;;;;;;;;;;;;;17.38;40.51;95991.91;5007589;28;19996;-70
2022/07/24 05:23:43;;;;;;;;;;;;;;;17.51;40.50;95989.16;4991371;28;20534;-70
2022/07/24 05:26:08;;;;;;;;;;;;;;;17.66;40.45;95985.38;5017050;28;20405;-70
2022/07/24 05:28:33;;;;;;;;;;;;;;;17.73;40.30;95978.09;5006773;28;20037;-70
2022/07/24 05:30:59;;;;;;;;;;;;;;;17.84;40.13;95976.56;5013366;28;19983;-70
2022/07/24 05:33:24;;;;;;;;;;;;;;;18.00;40.26;95988.72;5008336;28;20228;-70
2022/07/24 05:35:49;;;;;;;;;;;;;;;18.23;40.03;95989.22;5007077;28;20502;-70
2022/07/24 05:38:15;;;;;;;;;;;;;;;18.38;39.85;95980.78;5009723;28;20382;-70
2022/07/24 05:40:40;;;;;;;;;;;;;;;18.52;39.34;95982.34;5013415;28;20004;-70
2022/07/24 05:43:05;;;;;;;;;;;;;;;18.69;38.85;95981.81;5009532;28;20043;-70
2022/07/24 05:45:30;;;;;;;;;;;;;;;18.98;38.25;95981.34;5007276;28;19996;-70
2022/07/24 05:47:56;;;;;;;;;;;;;;;19.05;37.50;95974.84;5007148;28;20054;-70
2022/07/24 05:50:21;;;;;;;;;;;;;;;19.19;37.42;95971.97;5015318;28;19973;-70
2022/07/24 05:52:46;;;;;;;;;;;;;;;19.38;37.38;95974.72;5006977;28;20493;-70
2022/07/24 05:55:11;;;;;;;;;;;;;;;19.43;37.60;95972.97;5007853;28;19965;-71
2022/07/24 05:57:37;;;;;;;;;;;;;;;19.65;37.21;95975.19;5009277;28;19993;-71
2022/07/24 06:00:03;;;;;;;;;;;;;;;19.88;36.32;95975.53;5017728;28;19987;-71
2022/07/24 06:02:28;;;;;;;;;;;;;;;20.02;35.07;95966.19;5010697;28;19970;-71
2022/07/24 06:04:53;;;;;;;;;;;;;;;20.17;35.96;95973.06;5005702;28;19984;-71
2022/07/24 06:07:18;;;;;;;;;;;;;;;20.40;35.68;95977.69;5006841;28;20467;-71
2022/07/24 06:09:44;;;;;;;;;;;;;;;20.59;35.44;95967.59;5007074;28;19990;-71
2022/07/24 06:12:09;;;;;;;;;;;;;;;20.75;35.54;95959.88;5014539;28;20048;-71
2022/07/24 06:14:34;;;;;;;;;;;;;;;20.93;35.46;95968.91;5011289;28;20056;-71
2022/07/24 06:16:59;;;;;;;;;;;;;;;21.09;34.88;95965.50;5008053;28;19988;-71
2022/07/24 06:19:24;;;;;;;;;;;;;;;21.24;33.97;95962.28;5006720;28;19972;-71
2022/07/24 06:21:50;;;;;;;;;;;;;;;21.35;34.01;95971.47;5006995;28;20008;-71
2022/07/24 06:24:15;;;;;;;;;;;;;;;21.63;33.39;95972.59;5007447;28;20451;-71
2022/07/24 06:26:40;;;;;;;;;;;;;;;21.73;33.21;95973.84;5005185;28;19966;-71
2022/07/24 06:29:05;;;;;;;;;;;;;;;21.77;32.72;95975.84;5013517;28;20359;-71
2022/07/24 06:31:31;;;;;;;;;;;;;;;21.97;31.66;95963.75;5012135;28;20043;-71
2022/07/24 06:33:56;;;;;;;;;;;;;;;22.10;31.95;95962.59;5013329;28;19987;-71
2022/07/24 06:36:21;;;;;;;;;;;;;;;22.21;30.97;95957.38;5011611;28;20535;-71
2022/07/24 06:38:47;;;;;;;;;;;;;;;22.37;30.09;95959.28;5005731;28;19960;-71
2022/07/24 06:41:13;;;;;;;;;;;;;;;22.39;30.69;95953.59;5014441;28;19985;-71
2022/07/24 06:43:38;;;;;;;;;;;;;;;22.50;31.22;95951.91;5006639;28;20439;-71
2022/07/24 06:46:05;;;;;;;;;;;;;;;22.69;30.98;95962.50;5008593;28;20880;-70
2022/07/24 06:48:30;;;;;;;;;;;;;;;22.77;30.64;95962.91;5012416;28;20717;-70
2022/07/24 06:50:56;;;;;;;;;;;;;;;22.85;30.31;95975.25;5014902;28;20331;-70
2022/07/24 06:53:21;;;;;;;;;;;;;;;22.56;30.05;95975.34;5005535;28;20491;-70
2022/07/24 06:55:47;;;;;;;;;;;;;;;22.10;30.75;95972.66;5010163;28;19964;-70
2022/07/24 06:58:12;;;;;;;;;;;;;;;22.50;30.08;95977.09;5007064;28;20003;-70
2022/07/24 07:00:37;;;;;;;;;;;;;;;22.34;29.97;95983.34;5007925;28;19984;-70
2022/07/24 07:03:02;;;;;;;;;;;;;;;22.34;29.82;95978.78;5007943;28;19957;-70
2022/07/24 07:05:28;;;;;;;;;;;;;;;22.15;29.49;95976.28;5005302;28;20060;-70
2022/07/24 07:07:53;;;;;;;;;;;;;;;22.66;29.38;95980.94;5019246;28;19985;-70
2022/07/24 07:10:18;;;;;;;;;;;;;;;22.82;29.15;95978.44;5017826;28;20319;-70
2022/07/24 07:12:43;;;;;;;;;;;;;;;22.85;28.90;95977.13;5014457;28;20246;-70
2022/07/24 07:15:09;;;;;;;;;;;;;;;22.78;29.29;95971.88;5007413;28;20159;-70
2022/07/24 07:17:36;;;;;;;;;;;;;;;23.04;28.60;95974.94;4993879;28;19992;-70
2022/07/24 07:20:01;;;;;;;;;;;;;;;23.06;28.33;95975.53;5012396;28;20668;-70
2022/07/24 07:22:26;;;;;;;;;;;;;;;23.09;28.00;95977.75;5007473;28;20246;-70
2022/07/24 07:24:52;;;;;;;;;;;;;;;23.59;27.58;95979.75;5005710;28;20023;-70
2022/07/24 07:27:17;;;;;;;;;;;;;;;23.65;28.01;95982.28;5006443;28;19960;-70
2022/07/24 07:29:42;;;;;;;;;;;;;;;23.41;27.42;95982.53;5011958;28;20322;-70
2022/07/24 07:32:07;;;;;;;;;;;;;;;23.31;27.74;95976.97;5006656;28;20000;-70
2022/07/24 07:34:33;;;;;;;;;;;;;;;23.67;26.93;95976.59;5007620;28;19949;-70
2022/07/24 07:36:58;;;;;;;;;;;;;;;24.09;26.89;95971.63;5009555;28;19965;-70
2022/07/24 07:39:23;;;;;;;;;;;;;;;24.25;26.47;95975.28;5008734;28;19978;-70
2022/07/24 07:41:48;;;;;;;;;;;;;;;24.53;26.14;95978.81;5010595;28;20046;-70
2022/07/24 07:44:14;;;;;;;;;;;;;;;24.63;26.19;95980.78;5015567;28;19980;-70
2022/07/24 07:46:39;;;;;;;;;;;;;;;24.74;25.21;95979.00;5021893;28;20358;-70
2022/07/24 07:49:04;;;;;;;;;;;;;;;24.65;25.06;95987.63;5015479;28;19970;-70
2022/07/24 07:51:29;;;;;;;;;;;;;;;24.72;25.22;95987.41;5012018;28;20018;-70
2022/07/24 07:53:55;;;;;;;;;;;;;;;24.31;25.07;95985.94;5008265;28;20005;-71
2022/07/24 07:56:20;;;;;;;;;;;;;;;24.40;26.19;95972.72;5014295;28;19979;-71
2022/07/24 07:58:45;;;;;;;;;;;;;;;24.31;25.63;95982.44;5008864;28;20425;-71
2022/07/24 08:01:11;;;;;;;;;;;;;;;24.62;25.54;95980.00;5008572;28;19979;-71
2022/07/24 08:03:36;;;;;;;;;;;;;;;24.04;25.90;95984.06;5010813;28;20407;-71
2022/07/24 08:06:01;;;;;;;;;;;;;;;24.37;25.60;95975.16;5008694;28;19974;-71
2022/07/24 08:08:26;;;;;;;;;;;;;;;24.43;25.58;95982.28;5010617;28;19980;-71
2022/07/24 08:10:51;;;;;;;;;;;;;;;24.02;25.88;95977.25;5015944;28;19950;-71
2022/07/24 08:13:18;;;;;;;;;;;;;;;24.38;26.09;95982.25;5011617;28;19976;-71
2022/07/24 08:15:43;;;;;;;;;;;;;;;24.71;25.56;95983.84;5014555;28;19948;-71
2022/07/24 08:18:08;;;;;;;;;;;;;;;24.86;25.24;95979.63;5009138;28;19974;-71
2022/07/24 08:20:34;;;;;;;;;;;;;;;24.77;25.00;95975.72;5007329;28;20517;-71
2022/07/24 08:22:59;;;;;;;;;;;;;;;24.57;25.29;95971.78;5012920;28;19943;-71
2022/07/24 08:25:25;;;;;;;;;;;;;;;23.32;27.06;95975.91;5017216;28;19959;-71
2022/07/24 08:27:50;;;;;;;;;;;;;;;23.30;27.18;95978.88;5011271;28;19940;-70
2022/07/24 08:30:15;;;;;;;;;;;;;;;23.78;27.05;95978.38;5009926;28;19963;-70
2022/07/24 08:32:41;;;;;;;;;;;;;;;24.79;26.17;95968.97;5010253;28;20357;-70
2022/07/24 08:35:06;;;;;;;;;;;;;;;25.59;24.23;95983.59;5015552;28;19952;-71
2022/07/24 08:37:35;;;;;;;;;;;;;;;25.28;24.25;95974.41;5009668;28;20431;-71
2022/07/24 08:40:00;;;;;;;;;;;;;;;25.27;25.39;95970.88;5008549;28;19947;-71
2022/07/24 08:42:26;;;;;;;;;;;;;;;26.00;23.92;95971.13;4991942;28;19950;-71
2022/07/24 08:44:51;;;;;;;;;;;;;;;26.10;24.36;95984.00;5008217;28;20392;-71
2022/07/24 08:47:17;;;;;;;;;;;;;;;26.10;24.25;95978.56;5009445;28;20009;-71
2022/07/24 08:49:42;;;;;;;;;;;;;;;25.47;24.29;95983.81;4990684;28;20055;-71
2022/07/24 08:52:08;;;;;;;;;;;;;;;24.76;25.87;95968.66;4993007;28;19973;-71
2022/07/24 08:54:33;;;;;;;;;;;;;;;26.06;24.04;95980.19;4999379;28;19934;-71
2022/07/24 08:56:59;;;;;;;;;;;;;;;25.97;23.88;95983.41;5008672;28;20001;-71
2022/07/24 08:59:24;;;;;;;;;;;;;;;25.45;24.68;95975.06;5014153;28;19987;-71
2022/07/24 09:01:49;;;;;;;;;;;;;;;25.75;24.17;95982.81;5019137;28;19965;-71
2022/07/24 09:04:30;;;;;;;;;;;;;;;25.67;24.12;95973.25;5007821;28;19983;-71
2022/07/24 09:06:57;;;;;;;;;;;;;;;26.07;24.86;95968.22;5008238;28;19941;-71
2022/07/24 09:09:22;;;;;;;;;;;;;;;26.71;23.78;95960.59;5008777;28;20229;-71
2022/07/24 09:11:47;;;;;;;;;;;;;;;26.85;22.24;95965.50;5009739;28;20045;-71
2022/07/24 09:14:30;;;;;;;;;;;;;;;25.92;24.32;95967.06;5017866;28;19968;-71
2022/07/24 09:17:06;;;;;;;;;;;;;;;26.74;22.98;95964.69;5011839;28;19953;-71
2022/07/24 09:19:44;;;;;;;;;;;;;;;24.74;25.31;95959.94;5012665;28;19952;-71
2022/07/24 09:22:10;;;;;;;;;;;;;;;25.94;23.74;95967.59;5009740;28;20043;-71
2022/07/24 09:24:35;;;;;;;;;;;;;;;26.03;23.66;95961.66;5009094;28;20411;-71
2022/07/24 09:27:00;;;;;;;;;;;;;;;25.49;24.14;95969.09;5007493;28;19954;-71
2022/07/24 09:29:25;;;;;;;;;;;;;;;25.75;23.46;95967.28;5007448;28;19971;-71
2022/07/24 09:31:51;;;;;;;;;;;;;;;25.93;23.32;95965.94;5009791;28;19956;-71
2022/07/24 09:34:17;;;;;;;;;;;;;;;25.26;25.75;95965.69;5013328;28;19965;-70
2022/07/24 09:36:47;;;;;;;;;;;;;;;25.67;24.22;95967.81;5011672;28;20448;-71
2022/07/24 09:39:16;;;;;;;;;;;;;;;25.12;24.81;95968.88;5006170;28;19949;-71
2022/07/24 09:41:49;;;;;;;;;;;;;;;25.44;24.40;95956.25;4987218;28;20034;-71
2022/07/24 09:44:14;;;;;;;;;;;;;;;24.93;25.98;95947.56;4993549;28;20402;-71
2022/07/24 09:46:40;;;;;;;;;;;;;;;24.54;26.34;95953.25;4986488;28;20030;-71
2022/07/24 09:49:06;;;;;;;;;;;;;;;24.42;25.80;95948.81;4985642;28;19992;-71
2022/07/24 09:51:31;;;;;;;;;;;;;;;24.34;25.77;95945.75;4997460;28;19955;-71
2022/07/24 09:53:57;;;;;;;;;;;;;;;24.05;26.66;95955.81;4986849;28;19989;-71
2022/07/24 09:56:22;;;;;;;;;;;;;;;23.61;28.28;95955.84;4989318;28;20442;-71
2022/07/24 09:58:51;;;;;;;;;;;;;;;23.84;26.80;95956.69;4994355;28;19950;-71
2022/07/24 10:01:17;;;;;;;;;;;;;;;25.00;24.97;95957.38;4988151;28;20291;-71
2022/07/24 10:03:44;;;;;;;;;;;;;;;25.80;25.08;95955.56;4994031;28;19950;-71
2022/07/24 10:06:10;;;;;;;;;;;;;;;26.24;23.81;95957.03;4988745;28;19989;-71
2022/07/24 10:08:35;;;;;;;;;;;;;;;25.70;24.08;95959.91;4992732;28;19968;-71
2022/07/24 10:11:01;;;;;;;;;;;;;;;24.15;26.64;95952.38;4987878;28;19950;-71
2022/07/24 10:13:27;;;;;;;;;;;;;;;26.06;25.04;95939.28;4986659;28;20445;-72
2022/07/24 10:16:11;;;;;;;;;;;;;;;27.12;23.53;95942.50;4991680;28;20454;-71
2022/07/24 10:18:44;;;;;;;;;;;;;;;27.25;22.12;95941.09;4991600;28;19988;-71
2022/07/24 10:21:10;;;;;;;;;;;;;;;26.89;23.01;95936.56;4986292;28;20245;-71
2022/07/24 10:23:55;;;;;;;;;;;;;;;27.51;22.57;95941.81;4994602;28;19932;-71
2022/07/24 10:26:48;;;;;;;;;;;;;;;27.26;21.92;95946.28;4993689;28;19963;-71
2022/07/24 10:29:14;;;;;;;;;;;;;;;28.01;20.91;95930.06;4993685;28;19967;-71
2022/07/24 10:31:40;;;;;;;;;;;;;;;27.43;22.80;95926.00;4990281;28;19937;-71
2022/07/24 10:34:31;;;;;;;;;;;;;;;27.08;22.28;95933.19;5001641;28;19964;-71
2022/07/24 10:37:22;;;;;;;;;;;;;;;27.29;22.04;95931.25;4986266;28;19953;-71
2022/07/24 10:39:50;;;;;;;;;;;;;;;27.45;21.84;95925.72;4993404;28;20713;-71
2022/07/24 10:42:16;;;;;;;;;;;;;;;27.80;22.14;95926.66;5005081;28;20506;-71
2022/07/24 10:44:41;;;;;;;;;;;;;;;27.22;22.83;95920.63;5007688;28;19960;-71
2022/07/24 10:47:07;;;;;;;;;;;;;;;27.92;22.24;95926.31;5006695;28;19993;-71
2022/07/24 10:49:46;;;;;;;;;;;;;;;27.18;22.69;95916.81;5004615;28;20038;-71
2022/07/24 10:52:11;;;;;;;;;;;;;;;28.19;21.40;95918.75;5009062;28;19959;-72
2022/07/24 10:54:37;;;;;;;;;;;;;;;28.28;20.76;95917.84;5009850;28;19935;-71
2022/07/24 10:57:03;;;;;;;;;;;;;;;28.74;20.69;95915.00;5006071;28;20418;-71
2022/07/24 10:59:37;;;;;;;;;;;;;;;29.29;20.28;95917.44;5017189;28;19999;-71
2022/07/24 11:02:22;;;;;;;;;;;;;;;27.13;22.15;95908.66;5013293;28;20308;-71
2022/07/24 11:04:47;;;;;;;;;;;;;;;28.22;20.98;95921.75;5015187;28;20062;-71
2022/07/24 11:07:12;;;;;;;;;;;;;;;27.69;20.88;95912.22;5006144;28;20381;-71
2022/07/24 11:09:54;;;;;;;;;;;;;;;28.02;20.46;95911.75;5004661;28;20003;-71
2022/07/24 11:12:29;;;;;;;;;;;;;;;28.23;20.67;95904.22;5012325;28;19958;-71
2022/07/24 11:15:53;;;;;;;;;;;;;;;28.64;20.89;95908.50;5010928;28;19980;-71
2022/07/24 11:17:43;;;;;;;;;;;;;;;28.61;20.97;95900.03;5009363;28;19954;-71
2022/07/24 11:20:28;;;;;;;;;;;;;;;29.34;20.26;95891.06;5020644;28;19951;-71
2022/07/24 11:22:54;;;;;;;;;;;;;;;30.21;19.37;95888.19;5000343;28;19924;-71
2022/07/24 11:25:26;;;;;;;;;;;;;;;30.77;19.40;95885.63;5012289;28;19959;-71
2022/07/24 11:27:58;;;;;;;;;;;;;;;30.53;18.82;95881.09;5011917;28;20017;-71
2022/07/24 11:30:27;;;;;;;;;;;;;;;29.96;19.29;95884.75;5016469;28;19928;-71
2022/07/24 11:32:52;;;;;;;;;;;;;;;29.68;18.69;95887.34;5018830;28;19929;-71
2022/07/24 11:35:25;;;;;;;;;;;;;;;30.20;19.92;95876.44;5008869;28;19962;-71
2022/07/24 11:37:51;;;;;;;;;;;;;;;30.94;18.43;95870.47;5008757;28;19929;-71
2022/07/24 11:40:16;;;;;;;;;;;;;;;28.96;19.96;95872.59;5024352;28;19925;-71
2022/07/24 11:42:41;;;;;;;;;;;;;;;28.86;19.61;95882.56;5006486;28;19925;-71
2022/07/24 11:45:07;;;;;;;;;;;;;;;28.59;21.16;95872.16;5018325;28;19922;-71
2022/07/24 11:47:32;;;;;;;;;;;;;;;29.83;19.65;95869.03;5010280;28;20899;-71
2022/07/24 11:49:59;;;;;;;;;;;;;;;30.29;19.67;95864.75;5016001;28;20276;-71
2022/07/24 11:52:32;;;;;;;;;;;;;;;30.16;18.12;95860.84;5005284;28;20019;-71
2022/07/24 11:54:58;;;;;;;;;;;;;;;30.78;19.20;95857.03;4996033;28;20389;-71
2022/07/24 11:57:30;;;;;;;;;;;;;;;31.60;18.81;95856.47;5013425;28;19986;-71
2022/07/24 11:59:55;;;;;;;;;;;;;;;31.78;17.42;95862.09;5007545;28;19926;-71
2022/07/24 12:02:21;;;;;;;;;;;;;;;31.85;18.15;95851.47;5005401;28;20283;-71
2022/07/24 12:04:47;;;;;;;;;;;;;;;32.34;17.64;95856.38;5010350;28;20110;-71
2022/07/24 12:07:16;;;;;;;;;;;;;;;31.78;16.92;95864.84;5007322;28;20021;-71
2022/07/24 12:09:49;;;;;;;;;;;;;;;29.86;19.01;95871.16;5003475;28;20452;-70
2022/07/24 12:12:26;;;;;;;;;;;;;;;31.21;17.75;95858.66;4983125;28;19925;-70
2022/07/24 12:14:53;;;;;;;;;;;;;;;31.82;17.35;95857.63;4989215;28;20008;-71
2022/07/24 12:17:18;;;;;;;;;;;;;;;32.33;17.95;95849.25;5010961;28;19948;-70
2022/07/24 12:19:50;;;;;;;;;;;;;;;32.39;17.28;95849.09;5008520;28;20425;-70
2022/07/24 12:22:15;;;;;;;;;;;;;;;32.93;17.34;95845.47;5003851;28;20000;-70
2022/07/24 12:24:40;;;;;;;;;;;;;;;33.48;15.53;95837.84;4986869;28;19928;-70
2022/07/24 12:27:05;;;;;;;;;;;;;;;33.68;15.79;95843.88;5006690;28;19932;-71
2022/07/24 12:29:31;;;;;;;;;;;;;;;33.86;16.58;95834.44;4991299;28;20050;-70
2022/07/24 12:32:14;;;;;;;;;;;;;;;33.72;15.77;95828.28;4988173;28;19975;-70
2022/07/24 12:34:43;;;;;;;;;;;;;;;32.24;16.59;95835.44;5007321;28;19932;-70
2022/07/24 12:37:15;;;;;;;;;;;;;;;30.81;17.48;95831.69;5007107;28;19956;-70
2022/07/24 12:39:51;;;;;;;;;;;;;;;29.86;18.64;95825.38;5005260;28;19932;-70
2022/07/24 12:42:16;;;;;;;;;;;;;;;31.35;17.35;95822.06;5012601;28;19930;-70
2022/07/24 12:44:42;;;;;;;;;;;;;;;31.08;17.62;95818.22;5007768;28;20340;-70